Osceola, Arkansas
Current Conditions -  °F | °C
As of 1:10 PM on Thursday 18 Dec 2014 (Local Time) from KHKA Reporting Station
Overcast Overcast  
Wind Chill:   Ceiling: 4100
Heat Index:   Visibility: 10mi
Dew Point:   Wind: 6mph
Humidity: 82%   Direction: 80°E
Pressure: 30.21"   Gusts: NA
Location:  35.71°N, 89.97°W
Report Text: KHKA 181910Z AUTO 08005KT 10SM SCT012 OVC041 06/03 A3021 RMK AO2 T00560028
Loading
Personal Weather Stations






























Interactive Weather Map New forecast layout! Learn more

10-Day Weather Forecast

Advertisements
Track Severe Weather on mobile